Terminal Aerodrome Forecast
Issued by NWS

Current Version | Previous Version | Text Only | Print | Product List | Glossary Off
Versions: 1 2 3 4 5 6 7 8 9 10 11 12 13 14 15 16 17

000
FTUS41 KILN 241458 AAA
TAFLUK
TAF AMD
KLUK 241458Z 2415/2512 32009KT P6SM SCT035
     FM250200 04005KT P6SM FEW250
     FM250700 00000KT 3SM BR SKC=

USA.gov is the U.S. government's official web portal to all federal, state and local government web resources and services.